createdAt,value
2023-05-27T00:01:14.386Z,3.67
2023-05-27T00:06:08.268Z,4.30
2023-05-27T00:08:35.056Z,3.38
2023-05-27T00:11:01.739Z,3.40
2023-05-27T00:13:28.532Z,4.13
2023-05-27T00:15:55.327Z,3.92
2023-05-27T00:18:22.308Z,3.17
2023-05-27T00:20:49.773Z,3.80
2023-05-27T00:23:16.579Z,4.70
2023-05-27T00:25:43.249Z,4.28
2023-05-27T00:28:10.361Z,4.25
2023-05-27T00:30:38.020Z,4.40
2023-05-27T00:33:04.815Z,4.68
2023-05-27T00:35:31.661Z,4.20
2023-05-27T00:37:58.317Z,5.57
2023-05-27T00:40:27.303Z,5.05
2023-05-27T00:42:53.955Z,4.40
2023-05-27T00:45:21.009Z,4.80
2023-05-27T00:47:47.980Z,5.30
2023-05-27T00:50:15.463Z,3.67
2023-05-27T00:52:42.620Z,4.38
2023-05-27T00:55:09.992Z,4.72
2023-05-27T00:57:37.204Z,4.82
2023-05-27T01:00:08.268Z,4.85
2023-05-27T01:02:35.088Z,5.60
2023-05-27T01:05:01.940Z,4.63
2023-05-27T01:07:43.336Z,5.22
2023-05-27T01:10:50.756Z,3.70
2023-05-27T01:13:42.133Z,3.17
2023-05-27T01:16:13.298Z,3.45
2023-05-27T01:18:45.931Z,3.40
2023-05-27T01:21:15.220Z,4.00
2023-05-27T01:23:45.715Z,4.55
2023-05-27T01:26:12.428Z,4.20
2023-05-27T01:28:39.436Z,3.70
2023-05-27T01:31:11.751Z,4.07
2023-05-27T01:33:41.717Z,3.40
2023-05-27T01:36:18.892Z,4.03
2023-05-27T01:38:48.899Z,3.47
2023-05-27T01:41:17.171Z,3.70
2023-05-27T01:43:44.294Z,3.65
2023-05-27T01:46:11.337Z,2.95
2023-05-27T01:48:38.217Z,3.38
2023-05-27T01:51:05.023Z,2.92
2023-05-27T01:53:31.804Z,3.42
2023-05-27T01:55:58.483Z,3.03
2023-05-27T01:58:25.204Z,3.13
2023-05-27T02:00:52.236Z,3.47
2023-05-27T02:03:19.012Z,3.63
2023-05-27T02:05:46.530Z,3.08
2023-05-27T02:08:13.193Z,3.00
2023-05-27T02:10:39.874Z,3.38
2023-05-27T02:13:06.541Z,2.78
2023-05-27T02:15:33.240Z,2.90
2023-05-27T02:18:00.477Z,2.50
2023-05-27T02:20:27.331Z,2.70
2023-05-27T02:22:54.632Z,2.55
2023-05-27T02:25:21.399Z,2.45
2023-05-27T02:27:49.623Z,3.17
2023-05-27T02:30:17.174Z,2.65
2023-05-27T02:32:44.913Z,2.80
2023-05-27T02:35:15.593Z,2.33
2023-05-27T02:37:42.396Z,3.42
2023-05-27T02:40:10.494Z,3.13
2023-05-27T02:42:37.363Z,3.67
2023-05-27T02:45:04.645Z,3.38
2023-05-27T02:47:31.354Z,3.63
2023-05-27T02:49:58.048Z,2.88
2023-05-27T02:52:24.724Z,2.70
2023-05-27T02:54:51.428Z,3.55
2023-05-27T02:57:20.022Z,2.63
2023-05-27T02:59:46.760Z,3.35
2023-05-27T03:02:13.615Z,2.97
2023-05-27T03:04:40.798Z,2.83
2023-05-27T03:07:07.474Z,3.22
2023-05-27T03:09:34.147Z,3.30
2023-05-27T03:12:00.979Z,3.40
2023-05-27T03:14:27.644Z,2.60
2023-05-27T03:16:55.044Z,2.83
2023-05-27T03:19:22.113Z,2.75
2023-05-27T03:21:49.503Z,3.22
2023-05-27T03:24:17.448Z,3.08
2023-05-27T03:26:44.281Z,3.15
2023-05-27T03:29:11.089Z,3.13
2023-05-27T03:31:37.824Z,3.65
2023-05-27T03:34:04.543Z,3.13
2023-05-27T03:36:31.299Z,3.63
2023-05-27T03:38:58.025Z,2.35
2023-05-27T03:41:24.728Z,2.83
2023-05-27T03:43:51.441Z,3.33
2023-05-27T03:46:18.164Z,3.38
2023-05-27T03:48:44.901Z,2.83
2023-05-27T03:51:11.620Z,2.88
2023-05-27T03:53:38.368Z,2.95
2023-05-27T03:56:05.425Z,2.40
2023-05-27T03:58:32.170Z,3.30
2023-05-27T04:00:58.877Z,3.42
2023-05-27T04:03:27.347Z,2.70
2023-05-27T04:05:54.315Z,3.63
2023-05-27T04:08:23.534Z,3.28
2023-05-27T04:10:50.397Z,3.97
2023-05-27T04:13:17.088Z,3.13
2023-05-27T04:15:43.823Z,3.42
2023-05-27T04:18:10.600Z,2.92
2023-05-27T04:20:43.431Z,3.13
2023-05-27T04:23:11.635Z,4.85
2023-05-27T04:25:38.417Z,3.53
2023-05-27T04:28:05.378Z,3.40
2023-05-27T04:30:32.723Z,4.05
2023-05-27T04:33:00.517Z,3.58
2023-05-27T04:35:27.634Z,3.75
2023-05-27T04:37:54.331Z,3.78
2023-05-27T04:40:21.076Z,2.85
2023-05-27T04:42:48.722Z,3.47
2023-05-27T04:45:15.483Z,3.38
2023-05-27T04:47:42.328Z,4.95
2023-05-27T04:50:10.935Z,3.85
2023-05-27T04:52:42.215Z,4.57
2023-05-27T04:55:12.764Z,4.30
2023-05-27T04:57:42.446Z,4.05
2023-05-27T05:00:10.001Z,3.55
2023-05-27T05:02:37.024Z,3.72
2023-05-27T05:05:05.288Z,3.72
2023-05-27T05:07:32.435Z,3.70
2023-05-27T05:09:59.181Z,3.20
2023-05-27T05:12:26.891Z,2.92
2023-05-27T05:14:53.722Z,3.13
2023-05-27T05:17:21.178Z,3.25
2023-05-27T05:19:47.876Z,3.10
2023-05-27T05:22:14.949Z,2.63
2023-05-27T05:24:41.647Z,3.42
2023-05-27T05:27:08.388Z,2.83
2023-05-27T05:29:35.082Z,2.83
2023-05-27T05:32:02.081Z,2.45
2023-05-27T05:34:29.892Z,2.47
2023-05-27T05:36:56.650Z,3.20
2023-05-27T05:39:29.045Z,3.22
2023-05-27T05:41:57.018Z,3.20
2023-05-27T05:44:24.090Z,2.78
2023-05-27T05:46:51.138Z,3.13
2023-05-27T05:49:22.575Z,2.85
2023-05-27T05:51:52.560Z,2.20
2023-05-27T05:54:23.800Z,2.13
2023-05-27T05:56:52.962Z,2.13
2023-05-27T05:59:19.858Z,2.05
2023-05-27T06:01:49.482Z,2.00
2023-05-27T06:04:19.207Z,2.25
2023-05-27T06:06:47.225Z,2.03
2023-05-27T06:09:15.505Z,2.17
2023-05-27T06:11:42.239Z,2.10
2023-05-27T06:14:08.978Z,1.88
2023-05-27T06:16:40.853Z,2.10
2023-05-27T06:19:07.745Z,2.20
2023-05-27T06:21:34.988Z,1.90
2023-05-27T06:24:01.973Z,1.92
2023-05-27T06:26:30.442Z,3.50
2023-05-27T06:28:57.163Z,2.80
2023-05-27T06:31:23.898Z,3.85
2023-05-27T06:33:50.650Z,3.85
2023-05-27T06:36:17.556Z,3.47
2023-05-27T06:38:44.293Z,4.18
2023-05-27T06:41:10.949Z,3.42
2023-05-27T06:43:37.625Z,3.25
2023-05-27T06:46:05.535Z,3.35
2023-05-27T06:48:32.705Z,2.97
2023-05-27T06:50:59.657Z,2.80
2023-05-27T06:53:26.347Z,2.72
2023-05-27T06:55:53.121Z,1.77
2023-05-27T06:58:19.797Z,1.83
2023-05-27T07:00:46.599Z,1.40
2023-05-27T07:03:13.307Z,1.63
2023-05-27T07:05:40.119Z,1.38
2023-05-27T07:08:07.044Z,1.10
2023-05-27T07:10:33.822Z,1.20
2023-05-27T07:13:00.795Z,1.10
2023-05-27T07:15:28.533Z,1.00
2023-05-27T07:17:55.401Z,1.17
2023-05-27T07:20:22.314Z,1.00
2023-05-27T07:22:49.315Z,1.20
2023-05-27T07:25:16.304Z,1.10
2023-05-27T07:27:43.046Z,1.10
2023-05-27T07:30:10.319Z,1.27
2023-05-27T07:32:40.414Z,1.23
2023-05-27T07:35:08.229Z,1.10
2023-05-27T07:37:34.929Z,1.20
2023-05-27T07:40:02.064Z,1.40
2023-05-27T07:42:29.644Z,1.00
2023-05-27T07:44:57.356Z,1.17
2023-05-27T07:47:24.114Z,1.08
2023-05-27T07:49:51.994Z,1.30
2023-05-27T07:52:18.781Z,1.13
2023-05-27T07:54:54.439Z,1.33
2023-05-27T07:57:22.245Z,1.40
2023-05-27T07:59:48.944Z,1.30
2023-05-27T08:02:15.745Z,1.10
2023-05-27T08:04:44.854Z,1.25
2023-05-27T08:07:11.857Z,1.30
2023-05-27T08:09:38.571Z,1.25
2023-05-27T08:12:07.790Z,1.27
2023-05-27T08:14:35.954Z,1.35
2023-05-27T08:17:02.868Z,1.30
2023-05-27T08:19:29.717Z,1.25
2023-05-27T08:21:58.486Z,1.17
2023-05-27T08:24:25.416Z,1.30
2023-05-27T08:26:52.280Z,1.20
2023-05-27T08:29:19.873Z,1.20
2023-05-27T08:31:47.328Z,1.20
2023-05-27T08:34:14.189Z,1.08
2023-05-27T08:36:40.907Z,1.40
2023-05-27T08:39:07.882Z,1.40
2023-05-27T08:41:35.534Z,0.90
2023-05-27T08:44:19.588Z,1.15
2023-05-27T08:46:49.803Z,1.10
2023-05-27T08:49:17.104Z,0.98
2023-05-27T08:51:46.626Z,1.20
2023-05-27T08:54:13.334Z,1.13
2023-05-27T08:56:41.678Z,0.95
2023-05-27T08:59:09.268Z,0.90
2023-05-27T09:01:36.804Z,0.80
2023-05-27T09:04:04.127Z,1.02
2023-05-27T09:06:30.910Z,1.00
2023-05-27T09:08:57.622Z,1.00
2023-05-27T09:11:30.445Z,1.00
2023-05-27T09:16:24.422Z,0.70
2023-05-27T09:18:51.810Z,0.90
2023-05-27T09:21:18.794Z,0.90
2023-05-27T09:23:46.499Z,1.00
2023-05-27T09:26:14.681Z,1.17
2023-05-27T09:28:41.742Z,0.90
2023-05-27T09:31:09.818Z,1.10
2023-05-27T09:33:39.648Z,0.90
2023-05-27T09:36:08.277Z,1.13
2023-05-27T09:38:36.895Z,1.02
2023-05-27T09:41:04.301Z,1.00
2023-05-27T09:43:31.659Z,1.00
2023-05-27T09:46:03.652Z,0.93
2023-05-27T09:48:35.074Z,1.13
2023-05-27T09:51:02.564Z,0.90
2023-05-27T09:53:29.523Z,0.82
2023-05-27T09:55:57.666Z,0.80
2023-05-27T09:58:25.641Z,0.80
2023-05-27T10:00:54.806Z,1.10
2023-05-27T10:03:29.255Z,1.08
2023-05-27T10:05:57.493Z,0.90
2023-05-27T10:08:27.758Z,1.10
2023-05-27T10:10:55.381Z,1.15
2023-05-27T10:13:23.252Z,1.00
2023-05-27T10:15:57.142Z,1.00
2023-05-27T10:18:36.067Z,0.90
2023-05-27T10:21:05.619Z,1.10
2023-05-27T10:23:34.591Z,1.55
2023-05-27T10:26:09.220Z,1.42
2023-05-27T10:28:40.475Z,1.52
2023-05-27T10:31:15.257Z,1.63
2023-05-27T10:33:49.454Z,1.60
2023-05-27T10:36:18.451Z,1.50
2023-05-27T10:38:57.465Z,1.65
2023-05-27T10:41:24.689Z,1.58
2023-05-27T10:43:58.764Z,1.40
2023-05-27T10:46:26.283Z,1.73
2023-05-27T10:48:53.561Z,1.55
2023-05-27T10:51:20.536Z,1.48
2023-05-27T10:53:50.532Z,1.60
2023-05-27T10:56:23.122Z,1.63
2023-05-27T10:58:51.796Z,1.35
2023-05-27T11:01:21.709Z,1.52
2023-05-27T11:03:52.521Z,2.00
2023-05-27T11:06:19.323Z,1.90
2023-05-27T11:08:46.337Z,1.70
2023-05-27T11:11:14.035Z,1.63
2023-05-27T11:13:48.564Z,1.80
2023-05-27T11:16:17.093Z,1.42
2023-05-27T11:18:48.426Z,1.77
2023-05-27T11:21:19.980Z,2.00
2023-05-27T11:23:50.084Z,1.70
2023-05-27T11:26:22.782Z,2.15
2023-05-27T11:28:54.377Z,1.63
2023-05-27T11:31:23.397Z,2.00
2023-05-27T11:33:52.025Z,1.77
2023-05-27T11:36:19.535Z,1.50
2023-05-27T11:38:50.911Z,1.60
2023-05-27T11:41:22.925Z,1.70
2023-05-27T11:43:53.605Z,1.67
2023-05-27T11:46:21.012Z,1.88
2023-05-27T11:48:48.246Z,1.70
2023-05-27T11:51:15.147Z,1.67
2023-05-27T11:53:48.242Z,1.40
2023-05-27T11:56:16.490Z,1.67
2023-05-27T11:58:43.601Z,1.70
2023-05-27T12:01:10.322Z,1.50
2023-05-27T12:03:37.014Z,1.75
2023-05-27T12:06:04.693Z,1.70
2023-05-27T12:08:31.749Z,1.95
2023-05-27T12:10:58.617Z,2.05
2023-05-27T12:13:25.494Z,2.00
2023-05-27T12:15:52.409Z,1.73
2023-05-27T12:18:19.990Z,1.20
2023-05-27T12:20:47.127Z,1.40
2023-05-27T12:23:14.085Z,1.23
2023-05-27T12:25:41.024Z,1.55
2023-05-27T12:28:09.290Z,1.20
2023-05-27T12:30:37.652Z,1.30
2023-05-27T12:33:06.284Z,1.20
2023-05-27T12:35:34.960Z,1.77
2023-05-27T12:38:02.146Z,1.30
2023-05-27T12:40:28.950Z,1.13
2023-05-27T12:42:55.756Z,1.08
2023-05-27T12:45:26.991Z,1.00
2023-05-27T12:47:54.127Z,0.90
2023-05-27T12:50:22.096Z,0.88
2023-05-27T12:52:49.452Z,1.10
2023-05-27T12:55:18.347Z,1.00
2023-05-27T12:57:46.071Z,0.90
2023-05-27T13:00:13.665Z,0.90
2023-05-27T13:02:40.826Z,0.80
2023-05-27T13:05:10.722Z,1.00
2023-05-27T13:07:40.259Z,0.90
2023-05-27T13:10:15.682Z,0.98
2023-05-27T13:12:42.950Z,1.13
2023-05-27T13:15:11.499Z,1.23
2023-05-27T13:17:38.374Z,1.15
2023-05-27T13:20:06.147Z,1.10
2023-05-27T13:22:33.242Z,1.27
2023-05-27T13:25:00.020Z,1.13
2023-05-27T13:27:26.967Z,1.10
2023-05-27T13:29:54.044Z,1.17
2023-05-27T13:32:22.613Z,1.17
2023-05-27T13:34:49.916Z,1.20
2023-05-27T13:37:17.008Z,1.30
2023-05-27T13:39:44.799Z,1.25
2023-05-27T13:42:11.854Z,1.42
2023-05-27T13:44:38.580Z,1.60
2023-05-27T13:47:06.668Z,1.50
2023-05-27T13:49:34.493Z,1.33
2023-05-27T13:52:01.406Z,1.45
2023-05-27T13:54:29.204Z,1.65
2023-05-27T13:56:56.104Z,1.60
2023-05-27T13:59:25.730Z,1.80
2023-05-27T14:01:53.084Z,1.77
2023-05-27T14:04:22.265Z,1.90
2023-05-27T14:06:49.368Z,1.70
2023-05-27T14:09:19.590Z,1.85
2023-05-27T14:11:46.383Z,1.80
2023-05-27T14:14:13.136Z,1.73
2023-05-27T14:16:44.375Z,1.98
2023-05-27T14:19:15.542Z,1.80
2023-05-27T14:21:43.614Z,1.65
2023-05-27T14:24:14.422Z,1.88
2023-05-27T14:26:42.996Z,1.90
2023-05-27T14:29:10.552Z,1.92
2023-05-27T14:31:37.891Z,1.73
2023-05-27T14:34:04.684Z,1.58
2023-05-27T14:36:31.349Z,2.25
2023-05-27T14:38:58.103Z,2.10
2023-05-27T14:41:24.753Z,1.92
2023-05-27T14:43:55.272Z,1.67
2023-05-27T14:46:23.954Z,1.75
2023-05-27T14:48:51.083Z,1.80
2023-05-27T14:51:17.906Z,1.70
2023-05-27T14:53:44.590Z,1.48
2023-05-27T14:56:12.483Z,1.83
2023-05-27T14:58:40.603Z,1.75
2023-05-27T15:01:14.862Z,1.80
2023-05-27T15:03:41.645Z,1.48
2023-05-27T15:06:14.385Z,1.90
2023-05-27T15:08:42.699Z,1.60
2023-05-27T15:11:11.277Z,1.55
2023-05-27T15:13:39.597Z,1.45
2023-05-27T15:16:13.445Z,1.48
2023-05-27T15:18:40.530Z,1.70
2023-05-27T15:21:08.116Z,1.50
2023-05-27T15:23:35.498Z,1.33
2023-05-27T15:26:03.784Z,1.15
2023-05-27T15:28:33.234Z,1.42
2023-05-27T15:31:02.375Z,1.58
2023-05-27T15:33:29.032Z,1.40
2023-05-27T15:36:02.426Z,1.20
2023-05-27T15:38:29.575Z,1.27
2023-05-27T15:40:56.577Z,1.50
2023-05-27T15:43:24.636Z,1.30
2023-05-27T15:46:03.624Z,1.20
2023-05-27T15:48:32.154Z,1.33
2023-05-27T15:50:58.940Z,1.10
2023-05-27T15:53:26.480Z,1.27
2023-05-27T15:55:53.653Z,1.08
2023-05-27T15:58:20.614Z,1.00
2023-05-27T16:00:48.606Z,1.02
2023-05-27T16:03:15.874Z,1.10
2023-05-27T16:05:43.108Z,1.02
2023-05-27T16:08:11.912Z,0.90
2023-05-27T16:10:57.002Z,1.10
2023-05-27T16:13:28.162Z,1.08
2023-05-27T16:15:55.269Z,1.13
2023-05-27T16:18:22.154Z,1.10
2023-05-27T16:20:52.251Z,1.20
2023-05-27T16:23:20.839Z,0.93
2023-05-27T16:25:49.357Z,1.15
2023-05-27T16:28:16.233Z,1.00
2023-05-27T16:30:42.974Z,1.05
2023-05-27T16:33:10.046Z,1.00
2023-05-27T16:35:37.379Z,1.05
2023-05-27T16:38:04.519Z,1.23
2023-05-27T16:40:31.501Z,1.92
2023-05-27T16:42:58.655Z,1.55
2023-05-27T16:45:25.411Z,1.88
2023-05-27T16:47:52.235Z,1.92
2023-05-27T16:50:19.018Z,1.60
2023-05-27T16:52:46.080Z,1.90
2023-05-27T16:55:14.659Z,1.88
2023-05-27T16:57:41.443Z,1.90
2023-05-27T17:00:08.825Z,1.60
2023-05-27T17:02:36.235Z,1.50
2023-05-27T17:05:03.232Z,1.50
2023-05-27T17:07:30.003Z,1.30
2023-05-27T17:09:57.196Z,1.20
2023-05-27T17:12:23.952Z,1.10
2023-05-27T17:14:51.196Z,1.25
2023-05-27T17:17:18.661Z,1.40
2023-05-27T17:19:48.704Z,1.50
2023-05-27T17:22:15.468Z,1.45
2023-05-27T17:24:42.268Z,1.40
2023-05-27T17:27:14.154Z,1.30
2023-05-27T17:29:41.306Z,1.95
2023-05-27T17:32:08.092Z,1.50
2023-05-27T17:34:34.877Z,1.35
2023-05-27T17:37:01.796Z,1.70
2023-05-27T17:39:28.506Z,1.73
2023-05-27T17:41:55.156Z,1.10
2023-05-27T17:44:21.983Z,1.33
2023-05-27T17:46:49.680Z,1.27
2023-05-27T17:49:16.460Z,1.52
2023-05-27T17:51:43.529Z,1.60
2023-05-27T17:54:10.257Z,1.58
2023-05-27T17:56:37.029Z,2.00
2023-05-27T17:59:03.733Z,2.03
2023-05-27T18:01:33.320Z,2.15
2023-05-27T18:04:00.261Z,1.70
2023-05-27T18:06:27.086Z,2.17
2023-05-27T18:08:54.724Z,2.25
2023-05-27T18:11:21.448Z,2.22
2023-05-27T18:13:48.243Z,2.28
2023-05-27T18:16:15.154Z,2.33
2023-05-27T18:18:41.900Z,1.85
2023-05-27T18:21:09.378Z,2.60
2023-05-27T18:23:36.060Z,2.75
2023-05-27T18:26:02.937Z,2.95
2023-05-27T18:28:29.616Z,3.53
2023-05-27T18:30:56.295Z,2.88
2023-05-27T18:33:23.316Z,3.90
2023-05-27T18:35:50.114Z,3.25
2023-05-27T18:38:16.817Z,3.45
2023-05-27T18:40:43.552Z,3.58
2023-05-27T18:43:10.794Z,3.67
2023-05-27T18:45:49.968Z,3.28
2023-05-27T18:48:18.495Z,3.72
2023-05-27T18:50:47.433Z,4.28
2023-05-27T18:53:15.478Z,3.58
2023-05-27T18:55:42.451Z,4.28
2023-05-27T18:58:12.399Z,3.92
2023-05-27T19:00:43.184Z,4.15
2023-05-27T19:03:14.282Z,3.00
2023-05-27T19:05:42.469Z,3.72
2023-05-27T19:08:09.221Z,4.18
2023-05-27T19:10:36.119Z,3.90
2023-05-27T19:13:04.717Z,3.83
2023-05-27T19:15:31.796Z,2.95
2023-05-27T19:18:00.272Z,4.22
2023-05-27T19:20:27.649Z,4.30
2023-05-27T19:22:57.197Z,3.60
2023-05-27T19:25:24.289Z,3.92
2023-05-27T19:27:51.074Z,3.65
2023-05-27T19:30:17.720Z,3.70
2023-05-27T19:32:45.883Z,4.55
2023-05-27T19:35:12.678Z,3.88
2023-05-27T19:37:39.601Z,3.53
2023-05-27T19:40:07.510Z,4.18
2023-05-27T19:42:35.159Z,2.97
2023-05-27T19:45:03.743Z,3.28
2023-05-27T19:47:30.624Z,3.20
2023-05-27T19:49:57.412Z,3.17
2023-05-27T19:52:24.120Z,2.85
2023-05-27T19:54:51.546Z,2.70
2023-05-27T19:57:19.011Z,3.00
2023-05-27T19:59:48.567Z,3.15
2023-05-27T20:02:15.644Z,3.80
2023-05-27T20:04:45.955Z,3.13
2023-05-27T20:07:13.271Z,2.60
2023-05-27T20:09:41.745Z,3.13
2023-05-27T20:12:11.665Z,2.75
2023-05-27T20:14:38.616Z,2.78
2023-05-27T20:17:06.530Z,2.67
2023-05-27T20:19:34.732Z,2.75
2023-05-27T20:22:01.661Z,2.20
2023-05-27T20:24:28.316Z,2.65
2023-05-27T20:26:54.991Z,3.10
2023-05-27T20:29:21.854Z,3.10
2023-05-27T20:31:49.224Z,2.42
2023-05-27T20:34:15.965Z,3.00
2023-05-27T20:36:42.665Z,2.80
2023-05-27T20:39:09.394Z,3.38
2023-05-27T20:41:36.075Z,3.28
2023-05-27T20:44:02.951Z,3.80
2023-05-27T20:46:30.051Z,3.28
2023-05-27T20:48:57.360Z,3.70
2023-05-27T20:51:26.194Z,2.78
2023-05-27T20:53:57.770Z,3.22
2023-05-27T20:56:28.887Z,2.53
2023-05-27T20:58:56.781Z,2.95
2023-05-27T21:01:23.818Z,2.53
2023-05-27T21:03:51.020Z,2.40
2023-05-27T21:06:18.247Z,2.28
2023-05-27T21:08:44.943Z,2.50
2023-05-27T21:11:11.832Z,2.67
2023-05-27T21:13:38.609Z,2.90
2023-05-27T21:16:06.299Z,2.83
2023-05-27T21:18:34.288Z,2.88
2023-05-27T21:21:01.149Z,2.40
2023-05-27T21:23:28.008Z,4.15
2023-05-27T21:25:55.097Z,4.82
2023-05-27T21:28:21.817Z,3.60
2023-05-27T21:30:48.544Z,3.55
2023-05-27T21:33:15.600Z,4.00
2023-05-27T21:35:43.988Z,2.63
2023-05-27T21:38:13.036Z,2.80
2023-05-27T21:40:40.356Z,2.85
2023-05-27T21:43:07.321Z,2.65
2023-05-27T21:45:41.799Z,2.47
2023-05-27T21:48:09.196Z,2.05
2023-05-27T21:50:36.035Z,2.50
2023-05-27T21:53:04.935Z,3.00
2023-05-27T21:55:31.683Z,2.40
2023-05-27T21:57:58.430Z,3.00
2023-05-27T22:00:25.795Z,2.83
2023-05-27T22:02:54.027Z,2.53
2023-05-27T22:05:22.360Z,2.72
2023-05-27T22:07:49.038Z,3.15
2023-05-27T22:10:15.780Z,2.97
2023-05-27T22:12:42.484Z,2.70
2023-05-27T22:15:09.550Z,3.00
2023-05-27T22:17:36.381Z,3.58
2023-05-27T22:20:03.337Z,3.13
2023-05-27T22:22:30.075Z,3.45
2023-05-27T22:24:56.747Z,3.05
2023-05-27T22:27:23.428Z,2.72
2023-05-27T22:29:53.184Z,3.22
2023-05-27T22:32:19.864Z,3.35
2023-05-27T22:34:46.828Z,4.47
2023-05-27T22:37:13.509Z,3.25
2023-05-27T22:39:40.321Z,3.15
2023-05-27T22:42:08.636Z,3.05
2023-05-27T22:44:35.399Z,3.08
2023-05-27T22:47:02.247Z,4.00
2023-05-27T22:49:29.300Z,3.40
2023-05-27T22:51:56.100Z,3.30
2023-05-27T22:54:22.867Z,2.58
2023-05-27T22:56:49.558Z,2.50
2023-05-27T22:59:16.251Z,2.88
2023-05-27T23:01:43.045Z,3.35
2023-05-27T23:04:09.811Z,3.13
2023-05-27T23:06:36.792Z,4.07
2023-05-27T23:09:03.523Z,3.30
2023-05-27T23:11:30.251Z,4.38
2023-05-27T23:13:56.977Z,4.32
2023-05-27T23:16:23.690Z,4.25
2023-05-27T23:18:50.790Z,5.15
2023-05-27T23:21:17.648Z,3.22
2023-05-27T23:23:44.520Z,4.07
2023-05-27T23:26:11.293Z,3.45
2023-05-27T23:28:38.041Z,2.75
2023-05-27T23:31:04.776Z,3.75
2023-05-27T23:33:31.523Z,3.95
2023-05-27T23:35:58.458Z,3.22
2023-05-27T23:38:25.169Z,3.35
2023-05-27T23:40:52.168Z,3.95
2023-05-27T23:43:18.893Z,3.20
2023-05-27T23:45:45.705Z,3.53
2023-05-27T23:48:12.480Z,2.97
2023-05-27T23:50:39.189Z,4.28
2023-05-27T23:53:06.080Z,3.97
2023-05-27T23:55:32.747Z,3.42
2023-05-27T23:57:59.443Z,3.25
